Time;durP1;ratioP1;P1;durP2;ratioP2;P2;SDS_P1;SDS_P2;PMS_P1;PMS_P2;Temp;Humidity;BMP_temperature;BMP_pressure;BME280_temperature;BME280_humidity;BME280_pressure;Samples;Min_cycle;Max_cycle;Signal;HPM_P1;HPM_P2
2023/02/27 00:01:58;;;;;;;0.50;0.50;;;-0.40;99.90;;;;;;6219635;23;20020;-73
2023/02/27 00:04:24;;;;;;;0.55;0.55;;;-0.40;99.90;;;;;;6246445;23;20016;-73
2023/02/27 00:06:49;;;;;;;0.50;0.50;;;-0.40;99.90;;;;;;6246470;23;20015;-73
2023/02/27 00:09:15;;;;;;;0.60;0.60;;;-0.40;99.90;;;;;;6246845;23;20011;-74
2023/02/27 00:11:42;;;;;;;0.63;0.60;;;-0.50;99.90;;;;;;6219563;23;20066;-73
2023/02/27 00:14:08;;;;;;;0.60;0.60;;;-0.50;99.90;;;;;;6246715;23;20016;-74
2023/02/27 00:16:33;;;;;;;0.70;0.70;;;-0.40;99.90;;;;;;6246747;23;20027;-73
2023/02/27 00:19:01;;;;;;;0.70;0.70;;;-0.40;99.90;;;;;;6219482;23;20020;-73
2023/02/27 00:21:27;;;;;;;0.50;0.50;;;-0.30;99.90;;;;;;6246249;23;20026;-73
2023/02/27 00:23:54;;;;;;;0.70;0.70;;;-0.30;99.90;;;;;;6246755;23;20314;-73
2023/02/27 00:26:19;;;;;;;0.60;0.60;;;-0.40;99.90;;;;;;6246101;23;20380;-73
2023/02/27 00:28:45;;;;;;;0.55;0.55;;;-0.40;99.90;;;;;;6246212;23;20066;-73
2023/02/27 00:31:10;;;;;;;0.60;0.60;;;-0.40;99.90;;;;;;6194413;23;20020;-73
2023/02/27 00:33:36;;;;;;;0.70;0.70;;;-0.40;99.90;;;;;;6246190;23;20008;-74
2023/02/27 00:36:02;;;;;;;0.50;0.50;;;-0.30;99.90;;;;;;6246549;23;20016;-73
2023/02/27 00:38:28;;;;;;;0.63;0.63;;;-0.30;99.90;;;;;;6246128;23;20086;-73
2023/02/27 00:40:53;;;;;;;0.60;0.60;;;-0.40;99.90;;;;;;6219234;23;20012;-73
2023/02/27 00:43:19;;;;;;;0.60;0.60;;;-0.50;99.90;;;;;;6219153;23;20020;-73
2023/02/27 00:45:47;;;;;;;0.80;0.80;;;-0.60;99.90;;;;;;6246524;23;20164;-73
2023/02/27 00:48:14;;;;;;;0.70;0.70;;;-0.60;99.90;;;;;;6220524;23;20020;-73
2023/02/27 00:50:39;;;;;;;0.60;0.60;;;-0.70;99.90;;;;;;6219662;23;20027;-73
2023/02/27 00:53:05;;;;;;;0.93;0.60;;;-0.70;99.90;;;;;;6219574;23;20019;-74
2023/02/27 00:55:31;;;;;;;0.70;0.70;;;-0.70;99.90;;;;;;6219335;23;20016;-73
2023/02/27 00:57:56;;;;;;;0.60;0.60;;;-0.80;99.90;;;;;;6246102;23;20012;-74
2023/02/27 01:00:22;;;;;;;0.70;0.70;;;-0.80;99.90;;;;;;6219208;23;20047;-73
2023/02/27 01:02:48;;;;;;;0.60;0.60;;;-0.70;99.90;;;;;;6246415;23;20012;-73
2023/02/27 01:05:14;;;;;;;0.60;0.60;;;-0.70;99.90;;;;;;6246444;23;20020;-73
2023/02/27 01:07:40;;;;;;;0.63;0.63;;;-0.70;99.90;;;;;;6246483;23;20062;-74
2023/02/27 01:10:07;;;;;;;0.80;0.80;;;-0.70;99.90;;;;;;6246381;23;20004;-73
2023/02/27 01:12:33;;;;;;;0.60;0.60;;;-0.80;99.90;;;;;;6219607;23;20075;-73
2023/02/27 01:14:59;;;;;;;0.73;0.60;;;-0.80;99.90;;;;;;6245913;23;20101;-73
2023/02/27 01:17:24;;;;;;;0.60;0.60;;;-0.70;99.90;;;;;;6194047;23;20020;-74
2023/02/27 01:19:50;;;;;;;0.70;0.70;;;-0.80;99.90;;;;;;6246308;23;20008;-73
2023/02/27 01:22:16;;;;;;;0.60;0.60;;;-0.90;99.90;;;;;;6219047;23;20016;-73
2023/02/27 01:24:41;;;;;;;0.60;0.60;;;-1.00;99.90;;;;;;6246127;23;20012;-74
2023/02/27 01:27:07;;;;;;;1.05;0.80;;;-1.10;99.90;;;;;;6246226;23;20008;-74
2023/02/27 01:29:33;;;;;;;0.55;0.55;;;-1.10;99.90;;;;;;6246402;23;20016;-74
2023/02/27 01:31:58;;;;;;;0.70;0.70;;;-1.10;99.90;;;;;;6194103;23;20348;-73
2023/02/27 01:34:24;;;;;;;0.60;0.60;;;-1.10;99.90;;;;;;6194205;23;20083;-73
2023/02/27 01:36:50;;;;;;;0.75;0.75;;;-1.20;99.90;;;;;;6219148;23;20020;-73
2023/02/27 01:39:15;;;;;;;0.70;0.70;;;-1.20;99.90;;;;;;6247730;23;20019;-73
2023/02/27 01:41:41;;;;;;;0.70;0.70;;;-1.30;99.90;;;;;;6220783;23;20016;-74
2023/02/27 01:44:10;;;;;;;0.70;0.70;;;-1.40;99.90;;;;;;6248248;23;20437;-73
2023/02/27 01:46:36;;;;;;;0.60;0.60;;;-1.40;99.90;;;;;;6220962;23;20020;-73
2023/02/27 01:49:17;;;;;;;0.70;0.70;;;-1.50;99.90;;;;;;6195922;23;20066;-73
2023/02/27 01:51:53;;;;;;;0.73;0.73;;;-1.40;99.90;;;;;;6221255;23;20004;-73
2023/02/27 01:54:23;;;;;;;0.65;0.65;;;-1.50;99.90;;;;;;6220964;23;20016;-73
2023/02/27 01:56:49;;;;;;;0.65;0.65;;;-1.60;99.90;;;;;;6220775;23;20004;-73
2023/02/27 01:59:17;;;;;;;0.60;0.60;;;-1.70;99.90;;;;;;6220682;23;20431;-73
2023/02/27 02:01:44;;;;;;;0.70;0.70;;;-1.80;99.90;;;;;;6220544;23;20083;-74
2023/02/27 02:04:23;;;;;;;0.80;0.80;;;-1.90;99.90;;;;;;6220734;23;20023;-73
2023/02/27 02:07:07;;;;;;;0.77;0.77;;;-1.90;99.90;;;;;;6247910;23;20026;-73
2023/02/27 02:09:44;;;;;;;0.70;0.70;;;-1.80;99.90;;;;;;6221212;23;20012;-73
2023/02/27 02:12:13;;;;;;;0.65;0.65;;;-1.70;99.90;;;;;;6220681;23;20043;-73
2023/02/27 02:14:39;;;;;;;0.70;0.70;;;-1.60;99.90;;;;;;6220743;23;20066;-73
2023/02/27 02:17:31;;;;;;;0.60;0.60;;;-1.60;99.90;;;;;;6220758;23;20016;-74
2023/02/27 02:20:18;;;;;;;0.60;0.60;;;-1.50;99.90;;;;;;6195452;23;20018;-73
2023/02/27 02:23:02;;;;;;;0.80;0.80;;;-1.60;99.90;;;;;;6221244;23;20023;-73
2023/02/27 02:25:49;;;;;;;0.50;0.50;;;-1.80;99.90;;;;;;6247805;23;20382;-73
2023/02/27 02:28:44;;;;;;;0.70;0.70;;;-1.70;99.90;;;;;;6195422;23;20016;-73
2023/02/27 02:31:35;;;;;;;0.60;0.60;;;-1.70;99.90;;;;;;6247402;23;20083;-73
2023/02/27 02:34:31;;;;;;;0.60;0.60;;;-1.70;99.90;;;;;;6247422;23;20016;-73
2023/02/27 02:37:38;;;;;;;0.60;0.60;;;-1.80;99.90;;;;;;6247506;23;20012;-74
2023/02/27 02:40:11;;;;;;;1.15;0.70;;;-1.90;99.90;;;;;;6221662;23;20091;-74
2023/02/27 02:43:01;;;;;;;0.70;0.70;;;-1.80;99.90;;;;;;6247369;23;20023;-74
2023/02/27 02:45:36;;;;;;;0.60;0.60;;;-1.80;99.90;;;;;;6220714;23;20069;-74
2023/02/27 02:48:12;;;;;;;0.68;0.68;;;-1.80;99.90;;;;;;6220677;23;20015;-74
2023/02/27 02:50:48;;;;;;;0.60;0.60;;;-1.60;99.90;;;;;;6247476;23;20086;-74
2023/02/27 02:53:30;;;;;;;0.60;0.60;;;-1.60;99.90;;;;;;6195703;23;20074;-74
2023/02/27 02:56:27;;;;;;;0.60;0.60;;;-1.80;99.90;;;;;;6220296;23;20012;-73
2023/02/27 02:59:20;;;;;;;0.60;0.60;;;-1.70;99.90;;;;;;6247725;23;20023;-74
2023/02/27 03:01:55;;;;;;;0.60;0.60;;;-1.60;99.90;;;;;;6220354;23;20020;-74
2023/02/27 03:04:32;;;;;;;0.60;0.60;;;-1.80;99.90;;;;;;6247152;23;20425;-74
2023/02/27 03:07:21;;;;;;;0.77;0.77;;;-1.80;99.90;;;;;;6220496;23;20044;-74
2023/02/27 03:10:16;;;;;;;0.70;0.70;;;-1.90;99.90;;;;;;6176193;23;20023;-74
2023/02/27 03:12:46;;;;;;;0.60;0.60;;;-1.90;99.90;;;;;;6215693;23;20020;-74
2023/02/27 03:15:20;;;;;;;0.60;0.60;;;-1.80;99.90;;;;;;6220102;23;20023;-74
2023/02/27 03:18:00;;;;;;;0.90;0.90;;;-1.90;99.90;;;;;;6247210;23;20012;-74
2023/02/27 03:20:28;;;;;;;;;;;-1.90;99.90;;;;;;6247309;23;20069;-74
2023/02/27 03:22:58;;;;;;;0.65;0.65;;;-1.90;99.90;;;;;;6220268;23;20323;-74
2023/02/27 03:25:26;;;;;;;0.70;0.70;;;-1.90;99.90;;;;;;6220228;23;20073;-73
2023/02/27 03:27:58;;;;;;;0.70;0.70;;;-1.90;99.90;;;;;;6246871;23;20459;-74
2023/02/27 03:30:27;;;;;;;0.73;0.73;;;-1.80;99.90;;;;;;6247815;23;20025;-74
2023/02/27 03:33:08;;;;;;;0.82;0.60;;;-1.80;99.90;;;;;;6247185;23;20332;-74
2023/02/27 03:35:45;;;;;;;0.77;0.77;;;-1.90;99.90;;;;;;6247171;23;20040;-74
2023/02/27 03:38:23;;;;;;;0.57;0.57;;;-1.80;99.90;;;;;;6220016;23;20008;-74
2023/02/27 03:41:07;;;;;;;0.60;0.60;;;-2.00;99.90;;;;;;6247005;23;20316;-74
2023/02/27 03:44:00;;;;;;;0.70;0.70;;;-2.10;99.90;;;;;;6246648;23;20019;-74
2023/02/27 03:46:27;;;;;;;0.60;0.60;;;-2.10;99.90;;;;;;6198985;23;20048;-73
2023/02/27 03:48:52;;;;;;;0.70;0.70;;;-2.10;99.90;;;;;;6219752;23;20341;-74
2023/02/27 03:51:23;;;;;;;0.73;0.73;;;-2.10;99.90;;;;;;6219898;23;20023;-74
2023/02/27 03:54:14;;;;;;;0.60;0.60;;;-2.10;99.90;;;;;;6219879;23;20020;-73
2023/02/27 03:56:57;;;;;;;0.60;0.60;;;-2.00;99.90;;;;;;6203747;23;20046;-73
2023/02/27 03:59:24;;;;;;;0.73;0.73;;;-2.00;99.90;;;;;;6219660;23;20027;-73
2023/02/27 04:01:50;;;;;;;0.60;0.60;;;-2.00;99.90;;;;;;6246696;23;20008;-73
2023/02/27 04:04:17;;;;;;;0.70;0.70;;;-1.90;99.90;;;;;;6194522;23;20087;-74
2023/02/27 04:07:21;;;;;;;0.70;0.70;;;-1.90;99.90;;;;;;6246418;23;20506;-73
2023/02/27 04:09:50;;;;;;;0.60;0.60;;;-2.00;99.90;;;;;;6246568;23;20091;-73
2023/02/27 04:12:45;;;;;;;0.60;0.60;;;-2.10;99.90;;;;;;6219440;23;20020;-74
2023/02/27 04:15:32;;;;;;;0.60;0.60;;;-2.10;99.90;;;;;;6246745;23;20012;-73
2023/02/27 04:18:16;;;;;;;0.70;0.70;;;-2.20;99.90;;;;;;6219959;23;20012;-74
2023/02/27 04:21:03;;;;;;;0.60;0.60;;;-2.20;99.90;;;;;;6219538;23;20019;-73
2023/02/27 04:23:40;;;;;;;0.70;0.70;;;-2.30;99.90;;;;;;6246412;23;20012;-73
2023/02/27 04:26:19;;;;;;;0.63;0.63;;;-2.30;99.90;;;;;;6246658;23;20004;-73
2023/02/27 04:29:02;;;;;;;0.70;0.70;;;-2.40;99.90;;;;;;6246653;23;20008;-74
2023/02/27 04:31:44;;;;;;;0.70;0.70;;;-2.50;99.90;;;;;;6246274;23;20012;-73
2023/02/27 04:34:31;;;;;;;0.60;0.60;;;-2.50;99.90;;;;;;6246250;23;20421;-74
2023/02/27 04:37:09;;;;;;;0.65;0.65;;;-2.60;99.90;;;;;;6246312;23;20015;-74
2023/02/27 04:39:59;;;;;;;0.60;0.60;;;-2.50;99.90;;;;;;6246673;23;20019;-73
2023/02/27 04:42:29;;;;;;;;;;;-2.50;99.90;;;;;;6246541;23;20028;-73
2023/02/27 04:44:59;;;;;;;0.60;0.60;;;-2.50;99.90;;;;;;6219273;23;19938;-74
2023/02/27 04:47:31;;;;;;;0.70;0.70;;;-2.50;99.90;;;;;;6219305;23;20016;-73
2023/02/27 04:50:37;;;;;;;0.60;0.60;;;-2.50;99.90;;;;;;6219411;23;20020;-74
2023/02/27 04:53:14;;;;;;;0.80;0.80;;;-2.70;99.90;;;;;;6218703;23;20031;-74
2023/02/27 04:55:46;;;;;;;0.93;0.88;;;-2.70;99.90;;;;;;6246508;23;20008;-74
2023/02/27 04:58:19;;;;;;;0.70;0.70;;;-2.70;99.90;;;;;;6246501;23;20048;-74
2023/02/27 05:00:50;;;;;;;0.80;0.80;;;-2.70;99.90;;;;;;6194233;23;20016;-74
2023/02/27 05:03:23;;;;;;;0.60;0.60;;;-2.60;99.90;;;;;;6246509;23;20122;-74
2023/02/27 05:05:53;;;;;;;0.70;0.70;;;-2.50;99.90;;;;;;6219776;23;20012;-74
2023/02/27 05:08:39;;;;;;;;;;;-2.50;99.90;;;;;;6219957;23;20050;-74
2023/02/27 05:11:21;;;;;;;0.70;0.70;;;-2.40;99.90;;;;;;6193433;23;19937;-72
2023/02/27 05:13:51;;;;;;;0.90;0.90;;;-2.40;99.90;;;;;;6220459;23;20016;-74
2023/02/27 05:16:37;;;;;;;0.70;0.70;;;-2.40;99.90;;;;;;6248545;23;20016;-75
2023/02/27 05:19:04;;;;;;;0.60;0.60;;;-2.60;99.90;;;;;;6248212;23;20016;-74
2023/02/27 05:21:37;;;;;;;0.77;0.77;;;-2.50;99.90;;;;;;6248069;23;20016;-72
2023/02/27 05:24:16;;;;;;;0.80;0.80;;;-2.40;99.90;;;;;;6248083;23;20040;-73
2023/02/27 05:26:51;;;;;;;0.63;0.63;;;-2.40;99.90;;;;;;6247826;23;20432;-72
2023/02/27 05:29:32;;;;;;;0.60;0.60;;;-2.30;99.90;;;;;;6221908;23;20008;-72
2023/02/27 05:32:25;;;;;;;0.80;0.80;;;-2.30;99.90;;;;;;6196286;23;20019;-72
2023/02/27 05:35:02;;;;;;;0.60;0.60;;;-2.30;99.90;;;;;;6248279;23;20008;-72
2023/02/27 05:37:40;;;;;;;0.75;0.75;;;-2.40;99.90;;;;;;6248191;23;20012;-72
2023/02/27 05:40:09;;;;;;;0.70;0.70;;;-2.40;99.90;;;;;;6221196;23;20012;-72
2023/02/27 05:42:40;;;;;;;0.70;0.70;;;-2.40;99.90;;;;;;6220801;23;20314;-72
2023/02/27 05:45:18;;;;;;;0.73;0.73;;;-2.50;99.90;;;;;;6248186;23;20009;-72
2023/02/27 05:47:58;;;;;;;0.77;0.70;;;-2.50;99.90;;;;;;6221344;23;20058;-72
2023/02/27 05:50:26;;;;;;;;;;;-2.50;99.90;;;;;;6221375;23;20020;-72
2023/02/27 05:52:54;;;;;;;0.65;0.65;;;-2.50;99.90;;;;;;6221111;23;19923;-72
2023/02/27 05:55:37;;;;;;;0.70;0.70;;;-2.50;99.90;;;;;;6248113;23;20008;-72
2023/02/27 05:58:28;;;;;;;0.70;0.70;;;-2.50;99.90;;;;;;6220893;23;20448;-73
2023/02/27 06:00:59;;;;;;;0.60;0.60;;;-2.60;99.90;;;;;;6247949;23;20019;-73
2023/02/27 06:03:27;;;;;;;0.77;0.77;;;-2.70;99.90;;;;;;6220770;23;20333;-72
2023/02/27 06:05:55;;;;;;;0.70;0.70;;;-2.70;99.90;;;;;;6221077;23;20078;-73
2023/02/27 06:08:22;;;;;;;0.90;0.90;;;-2.70;99.90;;;;;;6220796;23;20023;-74
2023/02/27 06:10:51;;;;;;;1.20;0.70;;;-2.80;99.90;;;;;;6220742;23;20012;-72
2023/02/27 06:13:17;;;;;;;0.73;0.73;;;-2.70;99.90;;;;;;6195575;23;20019;-73
2023/02/27 06:15:44;;;;;;;0.70;0.70;;;-2.60;99.90;;;;;;6247904;23;20150;-71
2023/02/27 06:18:11;;;;;;;0.70;0.70;;;-2.60;99.90;;;;;;6247532;23;20333;-72
2023/02/27 06:20:37;;;;;;;0.60;0.60;;;-2.60;99.90;;;;;;6220597;23;20016;-73
2023/02/27 06:23:03;;;;;;;0.60;0.60;;;-2.50;99.90;;;;;;6248028;23;20333;-74
2023/02/27 06:25:29;;;;;;;0.70;0.70;;;-2.50;99.90;;;;;;6247283;23;20012;-72
2023/02/27 06:27:54;;;;;;;0.60;0.60;;;-2.50;99.90;;;;;;6248424;23;20027;-73
2023/02/27 06:30:20;;;;;;;0.70;0.70;;;-2.50;99.90;;;;;;6220677;23;20012;-74
2023/02/27 06:32:46;;;;;;;0.80;0.80;;;-2.50;99.90;;;;;;6220656;23;20023;-74
2023/02/27 06:35:12;;;;;;;0.80;0.80;;;-2.40;99.90;;;;;;6220597;23;20015;-72
2023/02/27 06:37:37;;;;;;;0.70;0.70;;;-2.50;99.90;;;;;;6220413;23;20012;-73
2023/02/27 06:40:04;;;;;;;0.73;0.73;;;-2.40;99.90;;;;;;6220553;23;20038;-72
2023/02/27 06:42:31;;;;;;;0.70;0.70;;;-2.40;99.90;;;;;;6194930;23;20020;-72
2023/02/27 06:44:57;;;;;;;0.68;0.60;;;-2.40;99.90;;;;;;6247513;23;20031;-72
2023/02/27 06:47:23;;;;;;;0.70;0.70;;;-2.50;99.90;;;;;;6220316;23;20437;-68
2023/02/27 06:49:48;;;;;;;0.75;0.75;;;-2.40;99.90;;;;;;6247468;23;20040;-74
2023/02/27 06:52:14;;;;;;;0.70;0.70;;;-2.40;99.90;;;;;;6247365;23;20076;-75
2023/02/27 06:54:40;;;;;;;0.70;0.70;;;-2.30;99.90;;;;;;6195285;23;20024;-73
2023/02/27 06:57:06;;;;;;;0.77;0.77;;;-2.30;99.90;;;;;;6247368;23;20046;-72
2023/02/27 06:59:31;;;;;;;0.70;0.70;;;-2.20;99.90;;;;;;6247107;23;20532;-72
2023/02/27 07:01:58;;;;;;;0.80;0.80;;;-2.00;99.90;;;;;;6220566;23;20437;-72
2023/02/27 07:04:23;;;;;;;0.70;0.70;;;-1.90;99.90;;;;;;6220135;23;20012;-72
2023/02/27 07:06:49;;;;;;;0.70;0.70;;;-1.90;99.90;;;;;;6247444;23;20077;-72
2023/02/27 07:09:15;;;;;;;0.80;0.75;;;-1.80;99.90;;;;;;6220348;23;20099;-72
2023/02/27 07:11:41;;;;;;;0.57;0.57;;;-1.60;99.90;;;;;;6220231;23;20337;-72
2023/02/27 07:14:06;;;;;;;0.70;0.70;;;-1.40;99.90;;;;;;6195047;23;20091;-69
2023/02/27 07:16:32;;;;;;;1.15;0.85;;;-1.40;99.90;;;;;;6220083;23;20016;-71
2023/02/27 07:18:58;;;;;;;0.60;0.60;;;-1.20;99.90;;;;;;6247132;23;20127;-72
2023/02/27 07:21:24;;;;;;;0.80;0.80;;;-1.20;99.90;;;;;;6219843;23;20024;-72
2023/02/27 07:23:49;;;;;;;0.82;0.82;;;-1.00;99.90;;;;;;6247246;23;20015;-71
2023/02/27 07:26:15;;;;;;;0.70;0.70;;;-1.00;99.90;;;;;;6247156;23;20084;-71
2023/02/27 07:28:41;;;;;;;0.68;0.68;;;-0.80;99.90;;;;;;6246759;23;20012;-71
2023/02/27 07:31:06;;;;;;;0.85;0.85;;;-0.70;99.90;;;;;;6220011;23;20020;-71
2023/02/27 07:33:32;;;;;;;0.77;0.77;;;-0.70;99.90;;;;;;6220004;23;20016;-71
2023/02/27 07:35:58;;;;;;;0.70;0.70;;;-0.60;99.90;;;;;;6246516;23;20008;-71
2023/02/27 07:38:24;;;;;;;0.80;0.80;;;-0.50;99.90;;;;;;6220050;23;20022;-71
2023/02/27 07:40:52;;;;;;;0.70;0.70;;;-0.40;99.90;;;;;;6219608;23;20019;-71
2023/02/27 07:43:17;;;;;;;0.70;0.70;;;-0.40;99.90;;;;;;6214566;23;20051;-71
2023/02/27 07:45:44;;;;;;;0.60;0.60;;;-0.20;99.90;;;;;;6216751;23;20334;-71
2023/02/27 07:48:09;;;;;;;1.08;0.90;;;-0.20;99.90;;;;;;6216611;23;20046;-71
2023/02/27 07:50:36;;;;;;;0.70;0.70;;;0.10;99.90;;;;;;6214670;23;20013;-71
2023/02/27 07:53:02;;;;;;;0.70;0.70;;;0.00;99.90;;;;;;6214668;23;20012;-71
2023/02/27 07:55:27;;;;;;;0.70;0.70;;;0.10;99.90;;;;;;6214805;23;20012;-72
2023/02/27 07:57:53;;;;;;;0.60;0.60;;;0.20;99.90;;;;;;6214663;23;20378;-72
2023/02/27 08:00:19;;;;;;;0.75;0.70;;;0.10;99.90;;;;;;6214616;23;20092;-72
2023/02/27 08:02:44;;;;;;;0.80;0.80;;;0.40;99.90;;;;;;6216412;23;20084;-72
2023/02/27 08:05:11;;;;;;;0.68;0.68;;;0.40;99.90;;;;;;6216437;23;20306;-72
2023/02/27 08:07:36;;;;;;;0.75;0.75;;;0.40;99.90;;;;;;6216477;23;20009;-72
2023/02/27 08:10:06;;;;;;;0.65;0.65;;;0.50;99.90;;;;;;6214726;23;20071;-72
2023/02/27 08:12:32;;;;;;;0.80;0.80;;;0.50;99.90;;;;;;6216119;23;20445;-72
2023/02/27 08:14:57;;;;;;;0.60;0.60;;;0.50;99.90;;;;;;6216390;23;20013;-72
2023/02/27 08:17:23;;;;;;;1.10;0.85;;;0.70;99.90;;;;;;6216080;23;20020;-72
2023/02/27 08:19:48;;;;;;;0.70;0.70;;;0.70;99.90;;;;;;6216439;23;20048;-72
2023/02/27 08:22:14;;;;;;;0.60;0.60;;;0.70;99.90;;;;;;6216205;23;20088;-72
2023/02/27 08:24:40;;;;;;;0.82;0.80;;;0.80;99.90;;;;;;6216386;23;20305;-72
2023/02/27 08:27:06;;;;;;;0.77;0.77;;;0.90;99.90;;;;;;6189384;23;20062;-72
2023/02/27 08:29:32;;;;;;;0.88;0.88;;;1.10;99.90;;;;;;6214439;23;20020;-72
2023/02/27 08:31:59;;;;;;;0.70;0.70;;;1.10;99.90;;;;;;6189371;23;20511;-72
2023/02/27 08:34:24;;;;;;;0.70;0.70;;;1.20;99.90;;;;;;6216282;23;20343;-72
2023/02/27 08:36:51;;;;;;;0.80;0.80;;;1.40;99.90;;;;;;6216230;23;20013;-73
2023/02/27 08:39:17;;;;;;;0.70;0.70;;;1.30;99.90;;;;;;6214552;23;20078;-72
2023/02/27 08:41:43;;;;;;;0.70;0.70;;;1.40;99.90;;;;;;6220618;23;20026;-72
2023/02/27 08:44:10;;;;;;;0.80;0.80;;;1.40;99.90;;;;;;6219535;23;20020;-72
2023/02/27 08:46:36;;;;;;;1.10;0.75;;;1.50;99.90;;;;;;6219280;23;20316;-72
2023/02/27 08:49:02;;;;;;;0.70;0.70;;;1.80;99.90;;;;;;6220654;23;20083;-72
2023/02/27 08:51:28;;;;;;;0.70;0.70;;;1.90;99.90;;;;;;6221288;23;20085;-69
2023/02/27 08:53:57;;;;;;;0.70;0.70;;;2.00;99.90;;;;;;6248792;23;20013;-71
2023/02/27 08:56:24;;;;;;;0.63;0.63;;;2.10;99.90;;;;;;6196400;23;20012;-72
2023/02/27 08:58:50;;;;;;;0.70;0.70;;;2.10;99.90;;;;;;6221306;23;20023;-69
2023/02/27 09:01:16;;;;;;;0.65;0.65;;;2.20;99.90;;;;;;6221303;23;20016;-68
2023/02/27 09:03:42;;;;;;;0.70;0.70;;;2.30;99.90;;;;;;6196311;23;20073;-67
2023/02/27 09:06:08;;;;;;;0.63;0.63;;;2.40;99.90;;;;;;6248497;23;20078;-67
2023/02/27 09:08:33;;;;;;;0.77;0.77;;;2.50;99.90;;;;;;6221334;23;20012;-67
2023/02/27 09:10:59;;;;;;;0.68;0.68;;;2.40;99.90;;;;;;6221273;23;20411;-68
2023/02/27 09:13:28;;;;;;;0.70;0.70;;;2.60;99.90;;;;;;6221340;23;20091;-68
2023/02/27 09:15:53;;;;;;;1.00;0.80;;;2.60;99.90;;;;;;6248042;23;20523;-68
2023/02/27 09:18:20;;;;;;;0.70;0.70;;;2.60;99.90;;;;;;6248358;23;20039;-68
2023/02/27 09:20:47;;;;;;;0.60;0.60;;;2.70;99.90;;;;;;6220980;23;20332;-68
2023/02/27 09:23:12;;;;;;;0.77;0.60;;;2.70;99.90;;;;;;6221620;23;20004;-68
2023/02/27 09:25:38;;;;;;;0.50;0.50;;;2.80;99.90;;;;;;6221355;23;20094;-71
2023/02/27 09:28:04;;;;;;;0.68;0.68;;;3.00;99.90;;;;;;6248342;23;20377;-71
2023/02/27 09:30:30;;;;;;;0.60;0.60;;;3.00;99.90;;;;;;6247863;23;20040;-71
2023/02/27 09:32:55;;;;;;;0.70;0.70;;;3.10;99.90;;;;;;6248171;23;20016;-71
2023/02/27 09:35:21;;;;;;;0.50;0.50;;;3.20;99.90;;;;;;6248219;23;20036;-71
2023/02/27 09:37:48;;;;;;;0.50;0.50;;;3.10;99.90;;;;;;6220966;23;20452;-71
2023/02/27 09:40:29;;;;;;;0.68;0.68;;;3.30;99.90;;;;;;6247942;23;20084;-68
2023/02/27 09:43:01;;;;;;;0.70;0.70;;;3.20;99.90;;;;;;6247645;23;20019;-70
2023/02/27 09:45:29;;;;;;;0.60;0.60;;;3.30;99.90;;;;;;6248150;23;20035;-70
2023/02/27 09:48:04;;;;;;;0.60;0.60;;;3.30;99.90;;;;;;6221159;23;20051;-70
2023/02/27 09:50:39;;;;;;;0.70;0.70;;;3.50;99.90;;;;;;6248477;23;20012;-70
2023/02/27 09:53:22;;;;;;;0.60;0.60;;;3.60;99.90;;;;;;6248602;23;20020;-70
2023/02/27 09:55:49;;;;;;;0.50;0.50;;;3.50;99.90;;;;;;6221613;23;20062;-70
2023/02/27 09:58:56;;;;;;;0.73;0.63;;;3.70;99.90;;;;;;6248234;23;20087;-70
2023/02/27 10:01:31;;;;;;;0.45;0.45;;;3.90;99.90;;;;;;6096385;23;20023;-71
2023/02/27 10:04:23;;;;;;;0.60;0.60;;;4.00;99.90;;;;;;6072576;23;20014;-71
2023/02/27 10:07:11;;;;;;;0.63;0.63;;;4.10;99.90;;;;;;6059068;23;20018;-72
2023/02/27 10:09:43;;;;;;;0.40;0.40;;;4.40;99.90;;;;;;6072520;23;20097;-70
2023/02/27 10:12:11;;;;;;;0.40;0.40;;;4.50;99.90;;;;;;6096358;23;20073;-70
2023/02/27 10:14:40;;;;;;;0.60;0.60;;;4.50;99.90;;;;;;6096360;23;20363;-70
2023/02/27 10:17:23;;;;;;;0.60;0.60;;;4.70;99.90;;;;;;6072334;23;20022;-70
2023/02/27 10:19:51;;;;;;;0.50;0.50;;;4.80;99.90;;;;;;6073150;23;20154;-68
2023/02/27 10:22:29;;;;;;;0.50;0.50;;;5.00;99.90;;;;;;6071977;23;20034;-68
2023/02/27 10:25:14;;;;;;;0.70;0.70;;;5.10;99.90;;;;;;6096238;23;20021;-68
2023/02/27 10:27:42;;;;;;;0.45;0.45;;;5.10;99.90;;;;;;6071937;23;20021;-68
2023/02/27 10:30:23;;;;;;;0.50;0.50;;;5.30;99.90;;;;;;6096075;23;20010;-68
2023/02/27 10:32:58;;;;;;;0.60;0.60;;;5.40;99.90;;;;;;6071985;23;20058;-68
2023/02/27 10:35:36;;;;;;;0.60;0.60;;;5.40;99.90;;;;;;6183067;23;20035;-67
2023/02/27 10:38:28;;;;;;;0.50;0.50;;;5.60;99.90;;;;;;6247681;23;20012;-68
2023/02/27 10:40:55;;;;;;;0.60;0.60;;;5.80;99.90;;;;;;6096473;23;20030;-68
2023/02/27 10:43:21;;;;;;;0.60;0.60;;;6.00;99.90;;;;;;6095681;23;20053;-67
2023/02/27 10:45:47;;;;;;;0.52;0.52;;;6.10;99.90;;;;;;6071769;23;20018;-67
2023/02/27 10:48:14;;;;;;;0.50;0.50;;;6.30;99.90;;;;;;6095797;23;20026;-67
2023/02/27 10:50:50;;;;;;;0.50;0.50;;;6.50;99.90;;;;;;6095587;23;20089;-67
2023/02/27 10:53:26;;;;;;;0.40;0.40;;;6.70;99.90;;;;;;6095776;23;20014;-68
2023/02/27 10:56:02;;;;;;;0.40;0.40;;;6.90;99.90;;;;;;6071783;23;20432;-67
2023/02/27 10:58:34;;;;;;;0.45;0.45;;;7.20;99.90;;;;;;6071766;23;20402;-68
2023/02/27 11:01:03;;;;;;;0.40;0.40;;;7.30;99.90;;;;;;6072474;23;20022;-68
2023/02/27 11:03:32;;;;;;;0.35;0.35;;;7.30;99.90;;;;;;6095642;23;20026;-67
2023/02/27 11:06:04;;;;;;;0.40;0.40;;;7.40;99.90;;;;;;6095781;23;20014;-66
2023/02/27 11:08:32;;;;;;;0.55;0.55;;;7.30;99.90;;;;;;6071643;23;20018;-68
2023/02/27 11:11:03;;;;;;;0.40;0.40;;;7.40;99.90;;;;;;6071265;23;20506;-67
2023/02/27 11:13:35;;;;;;;0.40;0.40;;;7.30;99.90;;;;;;6071470;23;20056;-67
2023/02/27 11:16:00;;;;;;;0.35;0.35;;;7.30;99.90;;;;;;6071536;23;20142;-67
2023/02/27 11:18:30;;;;;;;0.40;0.40;;;7.30;99.90;;;;;;6208857;23;20020;-67
2023/02/27 11:21:25;;;;;;;0.50;0.50;;;7.20;99.90;;;;;;6219856;23;20349;-66
2023/02/27 11:24:06;;;;;;;0.40;0.40;;;7.10;99.90;;;;;;6220021;23;20704;-66
2023/02/27 11:26:38;;;;;;;0.40;0.40;;;6.90;99.90;;;;;;6247279;23;20012;-67
2023/02/27 11:29:10;;;;;;;0.35;0.35;;;6.90;99.90;;;;;;6247384;23;20016;-66
2023/02/27 11:31:38;;;;;;;0.45;0.45;;;6.80;99.90;;;;;;6247032;23;20333;-67
2023/02/27 11:34:07;;;;;;;0.40;0.40;;;6.70;99.90;;;;;;6219867;23;20019;-66
2023/02/27 11:36:39;;;;;;;0.40;0.40;;;6.60;99.90;;;;;;6219817;23;20062;-66
2023/02/27 11:39:05;;;;;;;0.40;0.40;;;6.60;99.90;;;;;;6219840;23;20056;-66
2023/02/27 11:41:33;;;;;;;0.40;0.40;;;6.60;99.90;;;;;;6246821;23;20043;-66
2023/02/27 11:44:00;;;;;;;0.40;0.40;;;6.60;99.90;;;;;;6246898;23;20031;-66
2023/02/27 11:46:26;;;;;;;0.40;0.40;;;6.60;99.90;;;;;;6246955;23;20012;-66
2023/02/27 11:48:55;;;;;;;0.30;0.30;;;6.70;99.90;;;;;;6219669;23;20004;-66
2023/02/27 11:51:30;;;;;;;0.50;0.50;;;6.70;99.90;;;;;;6246866;23;20091;-66
2023/02/27 11:54:05;;;;;;;0.40;0.40;;;6.80;99.90;;;;;;6194625;23;20031;-66
2023/02/27 11:56:46;;;;;;;0.30;0.30;;;6.80;99.90;;;;;;6247043;23;20019;-66
2023/02/27 11:59:30;;;;;;;0.43;0.43;;;6.80;99.90;;;;;;6195681;23;20390;-65
2023/02/27 12:02:25;;;;;;;0.30;0.30;;;6.80;99.90;;;;;;6246451;23;20026;-67
2023/02/27 12:05:02;;;;;;;0.40;0.40;;;6.80;99.90;;;;;;6203764;23;20008;-67
2023/02/27 12:07:43;;;;;;;0.40;0.40;;;6.80;99.90;;;;;;6247115;23;20082;-67
2023/02/27 12:10:14;;;;;;;;;;;6.80;99.90;;;;;;6220251;23;20012;-67
2023/02/27 12:12:54;;;;;;;0.30;0.30;;;6.80;99.90;;;;;;6219465;23;19991;-67
2023/02/27 12:15:26;;;;;;;0.40;0.40;;;6.80;99.90;;;;;;6219450;23;20453;-67
2023/02/27 12:18:04;;;;;;;0.50;0.50;;;6.90;99.90;;;;;;6219291;23;20095;-67
2023/02/27 12:20:59;;;;;;;0.40;0.40;;;7.00;99.90;;;;;;6246650;23;20016;-67
2023/02/27 12:23:45;;;;;;;0.40;0.40;;;7.00;99.90;;;;;;6245806;23;20063;-67
2023/02/27 12:26:30;;;;;;;0.40;0.40;;;7.00;99.90;;;;;;6246780;23;20012;-67
2023/02/27 12:29:08;;;;;;;0.30;0.30;;;7.00;99.90;;;;;;6219373;23;20092;-67
2023/02/27 12:31:33;;;;;;;0.30;0.30;;;7.00;99.90;;;;;;6247277;23;20066;-67
2023/02/27 12:34:19;;;;;;;0.30;0.30;;;7.00;99.90;;;;;;6246595;23;20368;-67
2023/02/27 12:36:46;;;;;;;0.40;0.40;;;7.10;99.90;;;;;;6194349;23;20020;-67
2023/02/27 12:39:21;;;;;;;0.30;0.30;;;7.10;99.90;;;;;;6246749;23;20012;-67
2023/02/27 12:42:21;;;;;;;0.30;0.30;;;7.20;99.90;;;;;;6214627;23;20027;-67
2023/02/27 12:45:06;;;;;;;0.30;0.30;;;7.40;99.90;;;;;;6216522;23;20092;-67
2023/02/27 12:47:46;;;;;;;0.40;0.40;;;7.50;99.90;;;;;;6215922;23;20017;-67
2023/02/27 12:50:19;;;;;;;0.73;0.65;;;7.60;99.90;;;;;;6216371;23;20016;-67
2023/02/27 12:53:12;;;;;;;0.30;0.30;;;8.00;99.90;;;;;;6216604;23;20070;-67
2023/02/27 12:55:51;;;;;;;0.25;0.25;;;8.70;98.80;;;;;;6216351;23;20017;-67
2023/02/27 12:58:41;;;;;;;0.40;0.40;;;8.80;97.40;;;;;;6216194;23;20087;-68
2023/02/27 13:01:35;;;;;;;0.30;0.30;;;8.70;97.40;;;;;;6214070;23;20021;-67
2023/02/27 13:04:11;;;;;;;0.30;0.30;;;9.20;98.40;;;;;;6215704;23;20044;-68
2023/02/27 13:06:55;;;;;;;0.30;0.30;;;9.50;96.30;;;;;;6214267;23;20044;-67
2023/02/27 13:09:36;;;;;;;0.30;0.30;;;9.60;94.60;;;;;;6214336;23;20021;-69
2023/02/27 13:12:28;;;;;;;0.30;0.30;;;10.00;95.00;;;;;;6215330;23;20079;-68
2023/02/27 13:15:29;;;;;;;0.20;0.20;;;10.50;92.40;;;;;;6211051;23;20017;-69
2023/02/27 13:18:21;;;;;;;0.30;0.30;;;10.30;92.00;;;;;;6198642;23;20017;-69
2023/02/27 13:20:55;;;;;;;0.30;0.30;;;10.00;92.60;;;;;;6210868;23;20430;-69
2023/02/27 13:23:46;;;;;;;0.20;0.20;;;9.90;92.10;;;;;;6214304;23;20064;-70